Aérodrome :







RETROUVEZ-NOUS SUR...

 
LOGIN :

S'inscrire | Disclaimer

   EN    FR    IT 

 









Légende :    VFR   VFR Marginal   IFR   IFR Intensif   IFR Très Intensif
Visi : 
Plafond : 
>= 8 km
>= 3000ft
5 à 8 km
1000 à 3000 ft
1500m à 5 km
500 à 1000 ft
800 à 1500m
200 à 500 ft
< 800m
< 200 ft
Symboles :   Orages  Brouillard  Fortes neiges  Fortes précipitations  Vent > 20 kt






- Altitude de l'aérodrome : 1005 ft
- Code IATA : YAH


CYAH - La Grande-4

DERNIER METAR :
  • 121123Z AUTO 29003KT 160V310 9SM -SN OVC005 M12/M14 A3019 RMK SLP255

METARs EXPIRÉS :
  • 121100Z AUTO 17004KT 140V290 6SM -SN OVC005 M12/M14 A3020 RMK SLP256
  • 121053Z AUTO 00000KT 6SM -SN OVC005 M12/M14 A3019 RMK SLP255
  • 121042Z AUTO VRB02KT 5SM -SN OVC005 M12/M13 A3020 RMK SLP255
  • 121000Z AUTO 26003KT 9SM -SN OVC005 M12/M13 A3020 RMK SLP255
  • 120918Z AUTO 28003KT 230V290 6SM -SN OVC007 M11/M13 A3020 RMK SLP256
  • 120900Z AUTO 25004KT 9SM -SN OVC007 M11/M13 A3020 RMK SLP256

Prévision TAF périmée.



MET'MAP, la Météo Aéronautique d'un coup d'oeil ! - Copyright ORBIFLY Décembre 2007 - Disclaimer

ORBIFLY MET'MAP TEAM :

Programmation & Développement : Alexandra Zaïnal
Conception & Développement : Baudouin d'Aumeries
Co-Programmation & Développement : Marc-Olivier Méhu
Soutien technique & logistique : Manuel Goepfert

Contact : metmap@orbifly.com




SOURCES & CREDITS :

   NOAA